createdAt,value
2019-05-29T00:01:21.870Z,95077.54
2019-05-29T00:03:49.410Z,95076.23
2019-05-29T00:06:16.737Z,95080.84
2019-05-29T00:08:44.008Z,95080.27
2019-05-29T00:11:12.246Z,95082.03
2019-05-29T00:13:39.705Z,95087.88
2019-05-29T00:16:08.191Z,95085.64
2019-05-29T00:18:35.671Z,95078.61
2019-05-29T00:21:03.070Z,95083.95
2019-05-29T00:23:30.492Z,95082.88
2019-05-29T00:25:57.854Z,95082.63
2019-05-29T00:28:25.150Z,95084.16
2019-05-29T00:30:52.449Z,95079.71
2019-05-29T00:33:19.792Z,95083.59
2019-05-29T00:38:38.770Z,95085.41
2019-05-29T00:41:06.761Z,95093.13
2019-05-29T00:43:34.360Z,95090.36
2019-05-29T00:46:01.726Z,95093.36
2019-05-29T00:48:29.107Z,95094.29
2019-05-29T00:50:56.523Z,95101.95
2019-05-29T00:53:24.406Z,95098.01
2019-05-29T00:55:51.783Z,95099.56
2019-05-29T00:58:19.843Z,95097.53
2019-05-29T01:00:47.440Z,95094.91
2019-05-29T01:03:15.863Z,95093.50
2019-05-29T01:05:43.546Z,95094.09
2019-05-29T01:08:12.474Z,95093.50
2019-05-29T01:10:40.057Z,95103.47
2019-05-29T01:13:07.460Z,95096.93
2019-05-29T01:15:34.798Z,95102.89
2019-05-29T01:18:02.201Z,95107.05
2019-05-29T01:20:29.559Z,95103.84
2019-05-29T01:22:56.945Z,95107.16
2019-05-29T01:25:24.318Z,95112.98
2019-05-29T01:27:51.677Z,95107.18
2019-05-29T01:30:19.424Z,95117.73
2019-05-29T01:32:46.962Z,95119.78
2019-05-29T01:35:15.691Z,95119.52
2019-05-29T01:37:43.323Z,95126.06
2019-05-29T01:40:21.076Z,95121.20
2019-05-29T01:42:40.733Z,95126.78
2019-05-29T01:45:08.812Z,95131.47
2019-05-29T01:47:36.505Z,95131.30
2019-05-29T01:50:04.368Z,95138.20
2019-05-29T01:52:31.705Z,95133.07
2019-05-29T01:54:59.095Z,95133.89
2019-05-29T01:57:26.483Z,95138.23
2019-05-29T01:59:53.851Z,95130.92
2019-05-29T02:02:21.970Z,95139.14
2019-05-29T02:04:49.590Z,95135.67
2019-05-29T02:07:17.910Z,95137.03
2019-05-29T02:09:45.497Z,95151.89
2019-05-29T02:12:14.061Z,95150.26
2019-05-29T02:14:41.418Z,95146.55
2019-05-29T02:17:08.777Z,95153.39
2019-05-29T02:19:36.191Z,95151.52
2019-05-29T02:22:03.530Z,95156.27
2019-05-29T02:24:30.902Z,95149.28
2019-05-29T02:26:58.282Z,95154.93
2019-05-29T02:29:26.902Z,95164.13
2019-05-29T02:31:54.558Z,95154.53
2019-05-29T02:34:23.151Z,95158.31
2019-05-29T02:36:51.247Z,95155.41
2019-05-29T02:39:18.897Z,95159.92
2019-05-29T02:41:50.157Z,95164.13
2019-05-29T02:44:19.027Z,95165.83
2019-05-29T02:46:46.638Z,95168.30
2019-05-29T02:49:14.026Z,95168.80
2019-05-29T02:51:41.558Z,95174.93
2019-05-29T02:54:08.921Z,95172.37
2019-05-29T02:56:36.305Z,95182.80
2019-05-29T02:59:03.791Z,95180.95
2019-05-29T03:01:31.846Z,95182.94
2019-05-29T03:03:59.429Z,95181.24
2019-05-29T03:06:28.094Z,95183.72
2019-05-29T03:08:55.617Z,95185.32
2019-05-29T03:11:23.701Z,95188.77
2019-05-29T03:13:52.245Z,95187.85
2019-05-29T03:16:19.588Z,95196.20
2019-05-29T03:18:47.060Z,95193.95
2019-05-29T03:21:14.409Z,95196.23
2019-05-29T03:23:41.802Z,95195.12
2019-05-29T03:26:09.170Z,95199.14
2019-05-29T03:28:38.000Z,95196.80
2019-05-29T03:31:05.838Z,95197.55
2019-05-29T03:33:42.987Z,95201.45
2019-05-29T03:36:02.515Z,95209.00
2019-05-29T03:38:30.354Z,95213.22
2019-05-29T03:40:57.847Z,95209.90
2019-05-29T03:43:26.176Z,95209.67
2019-05-29T03:45:53.904Z,95211.30
2019-05-29T03:48:21.307Z,95213.72
2019-05-29T03:50:48.691Z,95213.55
2019-05-29T03:53:16.063Z,95216.13
2019-05-29T03:55:43.426Z,95219.25
2019-05-29T03:58:10.837Z,95226.97
2019-05-29T04:00:45.488Z,95223.30
2019-05-29T04:03:07.504Z,95226.50
2019-05-29T04:05:35.468Z,95227.64
2019-05-29T04:08:03.494Z,95235.15
2019-05-29T04:10:32.858Z,95226.33
2019-05-29T04:13:00.862Z,95241.19
2019-05-29T04:15:33.921Z,95241.25
2019-05-29T04:18:05.038Z,95249.81
2019-05-29T04:20:35.880Z,95250.11
2019-05-29T04:23:04.918Z,95250.29
2019-05-29T04:25:38.334Z,95264.96
2019-05-29T04:28:05.186Z,95265.80
2019-05-29T04:30:34.327Z,95273.49
2019-05-29T04:33:02.186Z,95273.44
2019-05-29T04:35:30.220Z,95277.21
2019-05-29T04:37:57.807Z,95275.94
2019-05-29T04:40:25.202Z,95276.36
2019-05-29T04:42:52.550Z,95280.38
2019-05-29T04:45:19.989Z,95287.74
2019-05-29T04:47:47.362Z,95291.10
2019-05-29T04:50:14.846Z,95291.56
2019-05-29T04:52:42.240Z,95292.73
2019-05-29T04:55:09.699Z,95301.23
2019-05-29T04:57:37.253Z,95305.29
2019-05-29T05:00:04.757Z,95297.52
2019-05-29T05:02:33.020Z,95305.77
2019-05-29T05:05:00.558Z,95306.05
2019-05-29T05:07:29.497Z,95312.19
2019-05-29T05:09:57.228Z,95306.36
2019-05-29T05:12:24.577Z,95310.30
2019-05-29T05:14:51.981Z,95308.91
2019-05-29T05:17:26.380Z,95314.30
2019-05-29T05:19:48.910Z,95324.34
2019-05-29T05:22:16.287Z,95317.94
2019-05-29T05:24:44.205Z,95326.20
2019-05-29T05:27:12.006Z,95329.19
2019-05-29T05:29:40.406Z,95332.52
2019-05-29T05:32:07.901Z,95335.78
2019-05-29T05:34:36.793Z,95333.44
2019-05-29T05:37:04.639Z,95340.00
2019-05-29T05:39:32.773Z,95344.34
2019-05-29T05:42:00.317Z,95336.48
2019-05-29T05:44:30.783Z,95339.15
2019-05-29T05:46:58.258Z,95336.92
2019-05-29T05:49:25.634Z,95348.14
2019-05-29T05:51:53.041Z,95355.22
2019-05-29T05:54:20.425Z,95348.22
2019-05-29T05:56:47.818Z,95355.57
2019-05-29T05:59:15.248Z,95354.45
2019-05-29T06:01:42.638Z,95345.41
2019-05-29T06:04:10.082Z,95351.58
2019-05-29T06:06:38.107Z,95359.32
2019-05-29T06:09:06.952Z,95359.06
2019-05-29T06:11:34.281Z,95362.20
2019-05-29T06:14:01.666Z,95361.19
2019-05-29T06:16:32.843Z,95366.55
2019-05-29T06:19:00.610Z,95371.72
2019-05-29T06:21:28.247Z,95366.25
2019-05-29T06:23:55.611Z,95367.95
2019-05-29T06:26:23.006Z,95367.57
2019-05-29T06:28:50.328Z,95374.89
2019-05-29T06:31:17.735Z,95376.48
2019-05-29T06:33:45.086Z,95382.36
2019-05-29T06:36:12.563Z,95379.42
2019-05-29T06:38:40.478Z,95375.45
2019-05-29T06:41:09.261Z,95378.62
2019-05-29T06:43:37.828Z,95384.02
2019-05-29T06:46:05.507Z,95385.36
2019-05-29T06:48:46.343Z,95389.83
2019-05-29T06:51:02.081Z,95397.23
2019-05-29T06:53:29.610Z,95399.05
2019-05-29T06:55:58.597Z,95407.33
2019-05-29T06:58:26.362Z,95409.01
2019-05-29T07:00:53.798Z,95412.77
2019-05-29T07:03:21.150Z,95420.27
2019-05-29T07:05:51.294Z,95417.34
2019-05-29T07:08:24.092Z,95422.41
2019-05-29T07:10:47.013Z,95428.59
2019-05-29T07:13:14.406Z,95434.94
2019-05-29T07:15:42.929Z,95430.36
2019-05-29T07:18:10.477Z,95432.88
2019-05-29T07:20:38.515Z,95430.21
2019-05-29T07:23:06.018Z,95437.28
2019-05-29T07:25:33.405Z,95439.03
2019-05-29T07:28:00.698Z,95435.75
2019-05-29T07:30:30.114Z,95434.91
2019-05-29T07:32:59.108Z,95439.46
2019-05-29T07:35:26.589Z,95433.22
2019-05-29T07:37:53.950Z,95443.87
2019-05-29T07:40:21.360Z,95440.72
2019-05-29T07:42:55.200Z,95449.02
2019-05-29T07:45:18.619Z,95443.30
2019-05-29T07:47:46.674Z,95440.01
2019-05-29T07:50:15.465Z,95452.55
2019-05-29T07:52:44.135Z,95454.11
2019-05-29T07:55:12.474Z,95449.73
2019-05-29T07:57:40.831Z,95446.91
2019-05-29T08:00:11.554Z,95461.07
2019-05-29T08:02:39.332Z,95452.71
2019-05-29T08:05:07.380Z,95456.20
2019-05-29T08:07:34.769Z,95458.95
2019-05-29T08:10:02.279Z,95453.30
2019-05-29T08:12:29.658Z,95462.23
2019-05-29T08:14:57.031Z,95461.16
2019-05-29T08:17:24.403Z,95462.56
2019-05-29T08:20:05.020Z,95469.72
2019-05-29T08:22:33.695Z,95462.69
2019-05-29T08:24:51.095Z,95462.19
2019-05-29T08:27:19.171Z,95465.14
2019-05-29T08:29:47.129Z,95460.89
2019-05-29T08:32:14.872Z,95466.59
2019-05-29T08:34:43.069Z,95460.70
2019-05-29T08:37:10.621Z,95459.13
2019-05-29T08:39:38.019Z,95461.14
2019-05-29T08:42:21.850Z,95462.16
2019-05-29T08:44:34.792Z,95465.84
2019-05-29T08:47:10.013Z,95466.22
2019-05-29T08:49:31.513Z,95461.09
2019-05-29T08:52:11.074Z,95464.89
2019-05-29T08:54:28.244Z,95468.91
2019-05-29T08:56:55.683Z,95479.39
2019-05-29T08:59:23.117Z,95470.51
2019-05-29T09:01:52.828Z,95470.22
2019-05-29T09:04:19.798Z,95470.95
2019-05-29T09:06:47.173Z,95477.77
2019-05-29T09:09:14.502Z,95480.97
2019-05-29T09:11:43.005Z,95477.52
2019-05-29T09:14:10.546Z,95476.08
2019-05-29T09:16:38.055Z,95471.80
2019-05-29T09:19:05.602Z,95472.97
2019-05-29T09:21:32.990Z,95473.96
2019-05-29T09:24:00.419Z,95468.91
2019-05-29T09:26:27.772Z,95467.80
2019-05-29T09:28:55.204Z,95470.34
2019-05-29T09:31:23.804Z,95468.80
2019-05-29T09:33:51.489Z,95468.55
2019-05-29T09:36:19.248Z,95466.77
2019-05-29T09:38:48.346Z,95470.75
2019-05-29T09:41:17.307Z,95468.21
2019-05-29T09:43:58.338Z,95474.70
2019-05-29T09:46:15.157Z,95476.88
2019-05-29T09:48:49.858Z,95482.52
2019-05-29T09:51:21.347Z,95474.08
2019-05-29T09:53:42.092Z,95478.28
2019-05-29T09:56:09.482Z,95480.47
2019-05-29T09:58:36.885Z,95488.83
2019-05-29T10:01:19.916Z,95485.76
2019-05-29T10:03:33.614Z,95486.45
2019-05-29T10:06:01.515Z,95489.33
2019-05-29T10:08:29.094Z,95494.53
2019-05-29T10:11:04.642Z,95490.77
2019-05-29T10:13:25.733Z,95494.44
2019-05-29T10:15:54.001Z,95496.80
2019-05-29T10:18:31.838Z,95496.93
2019-05-29T10:20:51.632Z,95491.77
2019-05-29T10:23:20.095Z,95495.57
2019-05-29T10:25:47.679Z,95495.02
2019-05-29T10:28:14.974Z,95489.64
2019-05-29T10:30:44.168Z,95491.18
2019-05-29T10:33:11.650Z,95494.07
2019-05-29T10:35:39.114Z,95502.23
2019-05-29T10:38:06.459Z,95504.81
2019-05-29T10:40:33.856Z,95507.59
2019-05-29T10:43:01.215Z,95495.92
2019-05-29T10:45:28.562Z,95505.42
2019-05-29T10:47:55.965Z,95501.45
2019-05-29T10:50:23.624Z,95503.07
2019-05-29T10:52:52.161Z,95505.29
2019-05-29T10:55:21.535Z,95507.27
2019-05-29T10:57:49.152Z,95515.67
2019-05-29T11:00:16.663Z,95517.48
2019-05-29T11:02:45.908Z,95518.30
2019-05-29T11:05:13.444Z,95521.17
2019-05-29T11:07:40.821Z,95509.06
2019-05-29T11:10:13.297Z,95512.88
2019-05-29T11:12:39.651Z,95519.16
2019-05-29T11:15:20.830Z,95530.02
2019-05-29T11:17:37.005Z,95528.00
2019-05-29T11:20:05.505Z,95531.70
2019-05-29T11:22:32.861Z,95531.07
2019-05-29T11:25:21.059Z,95535.63
2019-05-29T11:27:29.462Z,95540.97
2019-05-29T11:29:57.131Z,95541.95
2019-05-29T11:32:24.675Z,95537.88
2019-05-29T11:34:53.683Z,95533.70
2019-05-29T11:37:21.276Z,95539.77
2019-05-29T11:39:48.592Z,95534.53
2019-05-29T11:42:26.851Z,95537.13
2019-05-29T11:44:45.232Z,95540.84
2019-05-29T11:47:12.555Z,95536.48
2019-05-29T11:49:39.925Z,95541.77
2019-05-29T11:52:23.816Z,95545.39
2019-05-29T11:54:36.617Z,95546.68
2019-05-29T11:57:04.036Z,95551.73
2019-05-29T11:59:31.361Z,95552.92
2019-05-29T12:02:00.603Z,95550.65
2019-05-29T12:04:27.970Z,95548.13
2019-05-29T12:06:57.553Z,95545.33
2019-05-29T12:09:32.843Z,95552.67
2019-05-29T12:11:55.959Z,95555.00
2019-05-29T12:14:23.479Z,95563.15
2019-05-29T12:16:51.762Z,95558.65
2019-05-29T12:19:19.180Z,95562.05
2019-05-29T12:21:46.489Z,95561.39
2019-05-29T12:24:13.870Z,95556.23
2019-05-29T12:26:41.213Z,95560.04
2019-05-29T12:29:11.716Z,95561.39
2019-05-29T12:31:37.901Z,95557.50
2019-05-29T12:34:17.929Z,95553.38
2019-05-29T12:36:34.781Z,95559.31
2019-05-29T12:39:04.101Z,95554.33
2019-05-29T12:41:31.481Z,95558.92
2019-05-29T12:43:59.452Z,95554.30
2019-05-29T12:46:27.240Z,95563.80
2019-05-29T12:48:55.356Z,95562.39
2019-05-29T12:51:22.886Z,95562.73
2019-05-29T12:53:50.321Z,95565.55
2019-05-29T12:56:17.771Z,95573.27
2019-05-29T12:58:45.146Z,95574.67
2019-05-29T13:01:12.550Z,95582.51
2019-05-29T13:03:39.930Z,95581.95
2019-05-29T13:06:07.282Z,95585.58
2019-05-29T13:08:34.721Z,95583.69
2019-05-29T13:11:02.625Z,95578.18
2019-05-29T13:13:30.183Z,95585.59
2019-05-29T13:15:58.782Z,95587.94
2019-05-29T13:18:26.360Z,95588.02
2019-05-29T13:20:54.772Z,95588.33
2019-05-29T13:23:22.290Z,95594.34
2019-05-29T13:25:49.647Z,95587.90
2019-05-29T13:28:17.077Z,95598.23
2019-05-29T13:30:44.523Z,95605.77
2019-05-29T13:33:11.932Z,95600.83
2019-05-29T13:35:39.341Z,95598.96
2019-05-29T13:38:07.335Z,95600.95
2019-05-29T13:40:34.923Z,95604.05
2019-05-29T13:43:11.064Z,95602.05
2019-05-29T13:45:31.725Z,95602.55
2019-05-29T13:47:59.266Z,95611.29
2019-05-29T13:50:26.820Z,95605.53
2019-05-29T13:52:54.204Z,95601.16
2019-05-29T13:55:21.622Z,95599.19
2019-05-29T13:57:49.039Z,95590.77
2019-05-29T14:00:32.582Z,95597.19
2019-05-29T14:02:46.088Z,95600.41
2019-05-29T14:05:14.206Z,95591.58
2019-05-29T14:07:41.682Z,95595.61
2019-05-29T14:10:09.805Z,95598.47
2019-05-29T14:12:37.253Z,95595.83
2019-05-29T14:15:06.461Z,95599.84
2019-05-29T14:17:34.884Z,95600.88
2019-05-29T14:20:02.767Z,95607.19
2019-05-29T14:22:30.136Z,95598.20
2019-05-29T14:24:57.591Z,95607.44
2019-05-29T14:27:25.019Z,95602.53
2019-05-29T14:29:52.408Z,95606.00
2019-05-29T14:32:19.945Z,95607.49
2019-05-29T14:34:47.300Z,95609.98
2019-05-29T14:37:14.709Z,95611.83
2019-05-29T14:39:42.115Z,95610.44
2019-05-29T14:42:10.119Z,95612.56
2019-05-29T14:44:37.975Z,95618.59
2019-05-29T14:47:05.952Z,95618.36
2019-05-29T14:49:33.719Z,95620.07
2019-05-29T14:52:02.459Z,95622.86
2019-05-29T14:54:41.269Z,95623.66
2019-05-29T14:56:59.561Z,95630.10
2019-05-29T14:59:27.073Z,95620.72
2019-05-29T15:01:54.518Z,95628.75
2019-05-29T15:04:21.894Z,95632.16
2019-05-29T15:06:49.271Z,95634.08
2019-05-29T15:09:17.114Z,95638.83
2019-05-29T15:11:44.519Z,95634.17
2019-05-29T15:14:12.351Z,95639.69
2019-05-29T15:16:39.920Z,95641.67
2019-05-29T15:19:07.469Z,95636.52
2019-05-29T15:21:35.372Z,95641.42
2019-05-29T15:24:02.866Z,95646.28
2019-05-29T15:26:30.289Z,95654.83
2019-05-29T15:28:57.719Z,95665.52
2019-05-29T15:31:25.266Z,95665.27
2019-05-29T15:33:52.652Z,95661.97
2019-05-29T15:36:20.104Z,95669.32
2019-05-29T15:38:47.538Z,95667.39
2019-05-29T15:41:15.122Z,95678.05
2019-05-29T15:43:42.568Z,95680.64
2019-05-29T15:46:10.534Z,95681.28
2019-05-29T15:48:39.405Z,95684.71
2019-05-29T15:51:06.953Z,95685.69
2019-05-29T15:53:34.671Z,95690.82
2019-05-29T15:56:16.946Z,95682.78
2019-05-29T15:58:31.433Z,95689.64
2019-05-29T16:00:58.873Z,95699.31
2019-05-29T16:03:26.211Z,95697.52
2019-05-29T16:05:53.620Z,95699.33
2019-05-29T16:08:21.090Z,95702.53
2019-05-29T16:10:48.509Z,95709.58
2019-05-29T16:13:17.262Z,95708.98
2019-05-29T16:15:44.979Z,95715.09
2019-05-29T16:18:22.992Z,95716.99
2019-05-29T16:20:41.692Z,95717.45
2019-05-29T16:23:10.732Z,95726.19
2019-05-29T16:25:40.599Z,95729.41
2019-05-29T16:28:07.823Z,95728.67
2019-05-29T16:30:35.225Z,95743.81
2019-05-29T16:33:02.644Z,95735.01
2019-05-29T16:35:30.091Z,95740.05
2019-05-29T16:37:57.515Z,95744.95
2019-05-29T16:40:24.982Z,95737.98
2019-05-29T16:42:52.382Z,95749.66
2019-05-29T16:45:20.483Z,95741.83
2019-05-29T16:47:48.054Z,95742.98
2019-05-29T16:50:17.486Z,95745.27
2019-05-29T16:52:45.483Z,95739.67
2019-05-29T16:55:14.920Z,95739.69
2019-05-29T16:57:42.888Z,95746.67
2019-05-29T17:00:11.250Z,95751.31
2019-05-29T17:02:38.769Z,95753.42
2019-05-29T17:05:07.771Z,95753.03
2019-05-29T17:07:35.224Z,95755.87
2019-05-29T17:10:02.762Z,95754.21
2019-05-29T17:12:30.165Z,95751.06
2019-05-29T17:14:57.519Z,95756.16
2019-05-29T17:17:25.004Z,95761.95
2019-05-29T17:19:53.263Z,95768.60
2019-05-29T17:22:21.061Z,95770.50
2019-05-29T17:24:48.698Z,95769.16
2019-05-29T17:27:16.603Z,95767.25
2019-05-29T17:29:44.247Z,95778.97
2019-05-29T17:32:11.638Z,95775.44
2019-05-29T17:34:39.019Z,95779.48
2019-05-29T17:37:06.402Z,95782.35
2019-05-29T17:39:33.762Z,95788.36
2019-05-29T17:42:01.157Z,95785.93
2019-05-29T17:44:28.571Z,95785.47
2019-05-29T17:46:56.010Z,95797.61
2019-05-29T17:49:32.979Z,95801.02
2019-05-29T17:51:52.703Z,95806.44
2019-05-29T17:54:20.080Z,95809.64
2019-05-29T17:56:47.445Z,95805.23
2019-05-29T17:59:15.938Z,95805.30
2019-05-29T18:01:43.438Z,95805.23
2019-05-29T18:04:11.925Z,95807.45
2019-05-29T18:06:39.320Z,95803.70
2019-05-29T18:09:07.187Z,95806.31
2019-05-29T18:11:34.598Z,95805.11
2019-05-29T18:14:06.636Z,95807.78
2019-05-29T18:16:31.289Z,95812.47
2019-05-29T18:18:58.660Z,95817.33
2019-05-29T18:21:26.038Z,95822.05
2019-05-29T18:23:53.794Z,95822.09
2019-05-29T18:26:22.008Z,95819.20
2019-05-29T18:28:49.783Z,95823.59
2019-05-29T18:31:18.303Z,95826.28
2019-05-29T18:33:46.013Z,95835.22
2019-05-29T18:36:13.366Z,95836.84
2019-05-29T18:38:40.708Z,95840.86
2019-05-29T18:41:08.107Z,95844.81
2019-05-29T18:43:35.513Z,95846.06
2019-05-29T18:46:02.993Z,95848.45
2019-05-29T18:48:32.531Z,95856.42
2019-05-29T18:50:59.821Z,95856.27
2019-05-29T18:53:51.398Z,95855.59
2019-05-29T18:56:09.804Z,95862.89
2019-05-29T18:58:40.543Z,95866.80
2019-05-29T19:01:08.076Z,95866.43
2019-05-29T19:03:35.604Z,95874.56
2019-05-29T19:06:03.015Z,95876.89
2019-05-29T19:08:31.655Z,95877.42
2019-05-29T19:10:59.940Z,95879.27
2019-05-29T19:13:38.261Z,95889.92
2019-05-29T19:16:10.518Z,95892.27
2019-05-29T19:18:37.966Z,95897.02
2019-05-29T19:21:08.363Z,95897.21
2019-05-29T19:23:37.087Z,95902.31
2019-05-29T19:26:04.596Z,95915.50
2019-05-29T19:28:32.856Z,95916.78
2019-05-29T19:31:00.630Z,95920.03
2019-05-29T19:33:29.392Z,95934.81
2019-05-29T19:35:58.869Z,95930.41
2019-05-29T19:38:27.801Z,95945.63
2019-05-29T19:40:55.505Z,95943.42
2019-05-29T19:43:24.180Z,95954.12
2019-05-29T19:45:53.056Z,95959.98
2019-05-29T19:48:21.917Z,95957.55
2019-05-29T19:50:49.372Z,95960.73
2019-05-29T19:53:16.851Z,95961.02
2019-05-29T19:55:45.349Z,95973.03
2019-05-29T19:58:14.962Z,95963.39
2019-05-29T20:00:51.580Z,95970.27
2019-05-29T20:03:20.392Z,95962.80
2019-05-29T20:05:49.712Z,95967.03
2019-05-29T20:08:17.290Z,95973.49
2019-05-29T20:10:49.551Z,95969.37
2019-05-29T20:13:17.354Z,95970.84
2019-05-29T20:15:44.832Z,95983.27
2019-05-29T20:18:12.269Z,95980.06
2019-05-29T20:20:50.437Z,95983.92
2019-05-29T20:23:18.853Z,95984.75
2019-05-29T20:25:46.266Z,95985.73
2019-05-29T20:28:14.205Z,95987.27
2019-05-29T20:30:42.550Z,95992.55
2019-05-29T20:33:10.234Z,95995.20
2019-05-29T20:35:37.671Z,95997.50
2019-05-29T20:38:06.672Z,95995.65
2019-05-29T20:40:35.145Z,95997.03
2019-05-29T20:43:02.733Z,96001.95
2019-05-29T20:45:31.342Z,96003.96
2019-05-29T20:47:59.042Z,96004.50
2019-05-29T20:50:26.447Z,96010.38
2019-05-29T20:52:53.847Z,96012.16
2019-05-29T20:55:21.201Z,96022.84
2019-05-29T20:57:48.611Z,96016.25
2019-05-29T21:00:18.761Z,96021.54
2019-05-29T21:02:46.197Z,96020.46
2019-05-29T21:05:15.178Z,96022.53
2019-05-29T21:07:42.989Z,96023.81
2019-05-29T21:10:12.420Z,96025.70
2019-05-29T21:12:44.038Z,96031.41
2019-05-29T21:15:09.903Z,96027.64
2019-05-29T21:17:37.910Z,96024.69
2019-05-29T21:20:05.723Z,96017.77
2019-05-29T21:22:34.460Z,96021.84
2019-05-29T21:25:07.298Z,96026.91
2019-05-29T21:27:31.309Z,96022.72
2019-05-29T21:29:58.650Z,96025.84
2019-05-29T21:32:26.060Z,96020.23
2019-05-29T21:34:53.429Z,96024.78
2019-05-29T21:37:20.782Z,96023.73
2019-05-29T21:39:48.203Z,96032.73
2019-05-29T21:42:15.539Z,96031.18
2019-05-29T21:44:42.959Z,96043.36
2019-05-29T21:47:10.337Z,96036.72
2019-05-29T21:49:38.898Z,96041.52
2019-05-29T21:52:06.370Z,96055.88
2019-05-29T21:54:33.738Z,96047.23
2019-05-29T21:57:01.126Z,96047.22
2019-05-29T21:59:28.446Z,96047.15
2019-05-29T22:01:55.826Z,96045.73
2019-05-29T22:04:23.198Z,96046.74
2019-05-29T22:06:50.658Z,96043.66
2019-05-29T22:09:18.032Z,96038.83
2019-05-29T22:11:45.323Z,96049.36
2019-05-29T22:14:12.734Z,96053.19
2019-05-29T22:16:40.081Z,96048.59
2019-05-29T22:19:07.439Z,96046.05
2019-05-29T22:21:34.866Z,96045.70
2019-05-29T22:24:02.213Z,96045.05
2019-05-29T22:26:29.557Z,96057.47
2019-05-29T22:28:57.340Z,96053.09
2019-05-29T22:31:26.258Z,96061.06
2019-05-29T22:33:53.599Z,96062.72
2019-05-29T22:36:20.961Z,96057.33
2019-05-29T22:38:48.689Z,96058.54
2019-05-29T22:41:16.044Z,96067.00
2019-05-29T22:43:43.402Z,96065.03
2019-05-29T22:46:10.758Z,96061.11
2019-05-29T22:48:38.118Z,96062.34
2019-05-29T22:51:05.530Z,96065.22
2019-05-29T22:53:32.887Z,96065.24
2019-05-29T22:56:00.225Z,96070.47
2019-05-29T22:58:27.626Z,96071.58
2019-05-29T23:00:55.944Z,96071.98
2019-05-29T23:03:23.534Z,96074.11
2019-05-29T23:05:52.039Z,96072.98
2019-05-29T23:08:19.757Z,96074.92
2019-05-29T23:10:47.146Z,96074.58
2019-05-29T23:13:14.478Z,96078.38
2019-05-29T23:15:41.889Z,96073.77
2019-05-29T23:18:09.353Z,96076.52
2019-05-29T23:20:36.729Z,96072.94
2019-05-29T23:23:04.081Z,96074.73
2019-05-29T23:25:31.447Z,96084.29
2019-05-29T23:27:59.018Z,96080.09
2019-05-29T23:30:26.408Z,96077.12
2019-05-29T23:32:54.895Z,96081.41
2019-05-29T23:35:22.525Z,96084.20
2019-05-29T23:37:49.900Z,96080.94
2019-05-29T23:40:17.239Z,96084.92
2019-05-29T23:42:44.611Z,96082.53
2019-05-29T23:45:12.006Z,96082.89
2019-05-29T23:47:39.323Z,96081.45
2019-05-29T23:50:07.767Z,96082.23
2019-05-29T23:52:35.140Z,96088.08
2019-05-29T23:55:02.484Z,96086.92
2019-05-29T23:57:29.886Z,96085.27
